Terminal Aerodrome Forecast
Issued by NWS Wilmington, OH

Current Version | Previous Version | Graphics & Text | Print | Product List | Glossary On
Versions: 1 2 3 4 5 6 7 8 9 10 11 12 13 14 15 16 17 18 19 20
000
FTUS41 KILN 272300
TAFCVG
TAF
KCVG 272340Z 2800/2906 36005KT P6SM SCT250
     FM281000 03004KT 5SM BR SCT250
     FM281300 06005KT P6SM SCT080 SCT250
     FM290200 08004KT P6SM SCT250=

USA.gov is the U.S. government's official web portal to all federal, state and local government web resources and services.